Time;durP1;ratioP1;P1;durP2;ratioP2;P2;SDS_P1;SDS_P2;PMS_P1;PMS_P2;Temp;Humidity;BMP_temperature;BMP_pressure;BME280_temperature;BME280_humidity;BME280_pressure;Samples;Min_cycle;Max_cycle;Signal;HPM_P1;HPM_P2
2022/08/12 00:45:08;;;;;;;7.10;3.33;;;;;;;19.12;67.08;100599.94;4167570;28;20305;-65
2022/08/12 00:47:36;;;;;;;6.23;2.90;;;;;;;19.09;67.23;100598.47;4166912;29;20238;-63
2022/08/12 00:50:04;;;;;;;7.70;3.13;;;;;;;19.11;66.81;100596.41;4154474;29;20344;-63
2022/08/12 00:52:32;;;;;;;10.93;2.73;;;;;;;19.17;66.77;100601.03;4170054;29;21802;-65
2022/08/12 00:55:02;;;;;;;5.50;3.17;;;;;;;19.12;66.78;100599.94;4173334;29;20345;-64
2022/08/12 00:57:33;;;;;;;9.57;3.20;;;;;;;19.09;66.94;100592.25;4158581;28;20337;-63
2022/08/12 01:00:04;;;;;;;6.40;3.00;;;;;;;19.12;66.55;100592.69;4167057;28;20250;-64
2022/08/12 01:02:33;;;;;;;8.30;3.17;;;;;;;19.10;66.44;100592.03;4167261;28;25108;-64
2022/08/12 01:13:22;;;;;;;7.67;2.60;;;;;;;19.00;67.29;100598.81;4162181;28;20601;-62
2022/08/12 01:15:51;;;;;;;7.50;2.80;;;;;;;18.88;67.74;100595.84;4170885;28;20241;-63
2022/08/12 01:18:19;;;;;;;10.10;3.47;;;;;;;18.95;67.15;100597.53;4170583;28;22126;-64
2022/08/12 01:20:46;;;;;;;6.13;2.97;;;;;;;18.83;67.69;100591.03;4175431;28;25502;-66
2022/08/12 01:23:37;;;;;;;5.50;2.60;;;;;;;18.90;67.37;100591.91;4169720;28;20489;-63
2022/08/12 01:26:06;;;;;;;12.00;3.37;;;;;;;18.84;67.62;100587.28;4168778;28;20495;-65
2022/08/12 01:28:34;;;;;;;6.30;2.70;;;;;;;18.88;67.44;100596.66;4153686;29;20245;-64
2022/08/12 01:31:03;;;;;;;16.30;3.00;;;;;;;18.78;68.04;100593.47;4174528;28;21609;-63
2022/08/12 01:33:56;;;;;;;14.17;2.90;;;;;;;18.79;67.83;100597.00;4163556;29;22938;-63
2022/08/12 01:36:24;;;;;;;8.87;2.93;;;;;;;18.70;68.36;100593.56;4176081;29;20301;-63
2022/08/12 01:38:55;;;;;;;10.63;3.10;;;;;;;18.77;68.06;100589.09;4157742;29;20241;-65
2022/08/12 01:41:24;;;;;;;6.53;2.67;;;;;;;18.77;67.78;100589.94;4156080;29;20563;-64
2022/08/12 01:43:52;;;;;;;9.50;2.80;;;;;;;18.78;68.07;100585.38;4169943;29;20241;-64
2022/08/12 01:46:37;;;;;;;9.80;2.67;;;;;;;18.75;68.51;100588.44;4171857;28;20297;-64
2022/08/12 01:49:43;;;;;;;6.40;3.00;;;;;;;18.66;68.86;100576.97;4179176;28;20280;-66
2022/08/12 01:52:23;;;;;;;6.63;2.70;;;;;;;18.65;68.82;100588.75;4144555;29;21164;-63
2022/08/12 01:54:50;;;;;;;9.10;2.37;;;;;;;18.70;68.62;100590.88;4165811;29;20282;-66
2022/08/12 01:57:25;;;;;;;4.17;2.30;;;;;;;18.59;69.48;100569.84;4161901;29;20328;-65
2022/08/12 02:00:14;;;;;;;8.27;2.57;;;;;;;18.52;69.72;100564.41;4179442;28;20245;-64
2022/08/12 02:13:03;;;;;;;6.63;2.73;;;;;;;18.40;69.83;100561.38;4159452;28;23191;-65
2022/08/12 02:15:44;;;;;;;8.60;2.87;;;;;;;18.49;70.12;100554.81;4164558;28;20622;-64
2022/08/12 02:18:38;;;;;;;8.80;2.70;;;;;;;18.51;69.78;100558.16;4164265;28;20929;-64
2022/08/12 02:21:31;;;;;;;6.20;2.57;;;;;;;18.49;69.96;100554.81;4168975;28;20234;-64
2022/08/12 02:23:59;;;;;;;6.33;2.70;;;;;;;18.51;69.79;100557.34;4167785;28;20240;-66
2022/08/12 02:26:29;;;;;;;8.73;2.73;;;;;;;18.54;69.55;100563.19;4166165;28;20230;-65
2022/08/12 02:28:56;;;;;;;5.87;2.63;;;;;;;18.55;69.56;100553.22;4167872;28;20245;-66
2022/08/12 02:31:25;;;;;;;8.10;2.70;;;;;;;18.58;69.73;100557.41;4161207;28;20266;-64
2022/08/12 02:33:53;;;;;;;7.70;2.50;;;;;;;18.58;69.35;100547.44;4166154;28;20241;-64
2022/08/12 02:36:19;;;;;;;4.73;2.20;;;;;;;18.52;69.92;100529.38;4165799;28;20301;-53
2022/08/12 02:38:47;;;;;;;3.47;2.10;;;;;;;18.61;69.25;100541.66;4184951;28;20237;-49
2022/08/12 02:41:18;;;;;;;3.97;2.43;;;;;;;18.65;69.50;100536.72;4162337;28;20242;-61
2022/08/12 02:43:51;;;;;;;5.77;2.40;;;;;;;18.62;69.79;100540.63;4173401;28;24599;-53
2022/08/12 02:46:22;;;;;;;5.53;2.07;;;;;;;18.66;69.63;100546.47;4164265;28;20471;-49
2022/08/12 02:48:58;;;;;;;7.20;2.50;;;;;;;18.67;69.32;100551.66;4184286;28;20325;-51
2022/08/12 02:51:31;;;;;;;6.80;2.33;;;;;;;18.71;69.43;100547.56;4167191;28;20238;-47
2022/08/12 02:54:02;;;;;;;4.77;2.20;;;;;;;18.69;69.58;100559.56;4166234;28;20376;-63
2022/08/12 02:56:33;;;;;;;5.93;2.60;;;;;;;18.52;69.86;100554.47;4176027;28;20237;-66
2022/08/12 02:59:00;;;;;;;6.07;2.47;;;;;;;18.50;70.13;100551.13;4173450;28;21155;-64
2022/08/12 03:01:32;;;;;;;6.90;2.37;;;;;;;18.56;70.43;100544.94;4163615;28;20290;-64
2022/08/12 03:04:02;;;;;;;7.10;2.20;;;;;;;18.62;69.84;100556.81;4167007;28;20234;-64
2022/08/12 03:06:36;;;;;;;5.37;2.53;;;;;;;18.55;70.98;100561.31;4170770;28;20238;-64
2022/08/12 03:09:04;;;;;;;8.83;2.73;;;;;;;18.27;77.62;100539.72;4170937;28;20292;-64
2022/08/12 03:11:41;;;;;;;9.10;3.00;;;;;;;17.76;82.03;100531.69;4175266;28;20243;-63
2022/08/12 03:14:16;;;;;;;8.87;3.17;;;;;;;17.34;85.71;100538.63;4175581;28;20504;-64
2022/08/12 03:16:49;;;;;;;4.27;2.60;;;;;;;17.04;87.75;100531.41;4177176;28;20241;-64
2022/08/12 03:19:19;;;;;;;7.70;3.13;;;;;;;16.87;90.43;100544.16;4166345;28;20661;-64
2022/08/12 03:21:50;;;;;;;10.27;3.30;;;;;;;16.75;92.01;100550.16;4170179;28;20238;-62
2022/08/12 03:24:37;;;;;;;6.53;3.17;;;;;;;16.67;91.88;100559.97;4188097;28;21246;-64
2022/08/12 03:27:08;;;;;;;8.30;3.23;;;;;;;16.63;92.70;100557.81;4170047;28;20321;-65
2022/08/12 03:29:37;;;;;;;8.57;3.10;;;;;;;16.63;94.14;100560.50;4177635;28;20316;-63
2022/08/12 03:32:17;;;;;;;8.63;3.57;;;;;;;16.63;92.42;100564.03;4166671;28;20248;-63
2022/08/12 03:35:06;;;;;;;5.73;2.90;;;;;;;16.65;93.71;100564.69;4168092;28;20239;-64
2022/08/12 03:38:10;;;;;;;7.60;2.93;;;;;;;16.69;94.14;100562.44;4180702;28;20389;-64
2022/08/12 04:00:47;;;;;;;11.77;3.00;;;;;;;16.95;89.59;100590.78;4179499;28;21740;-64
2022/08/12 04:04:02;;;;;;;10.30;3.40;;;;;;;16.94;89.89;100591.84;4169932;28;20336;-64
2022/08/12 04:06:01;;;;;;;7.23;2.87;;;;;;;16.96;89.14;100595.19;4161064;28;20317;-63
2022/08/12 04:08:28;;;;;;;6.20;2.40;;;;;;;17.01;88.27;100593.59;4174158;28;21766;-64
2022/08/12 04:13:40;;;;;;;6.57;2.80;;;;;;;17.18;87.20;100593.44;4172453;28;20230;-61
2022/08/12 04:16:09;;;;;;;7.17;2.63;;;;;;;17.16;87.00;100590.09;4167323;28;21473;-64
2022/08/12 04:18:39;;;;;;;8.13;2.80;;;;;;;17.21;86.73;100585.84;4170756;28;20235;-63
2022/08/12 04:21:09;;;;;;;11.10;2.93;;;;;;;17.28;86.49;100597.53;4169986;28;20289;-65
2022/08/12 04:23:41;;;;;;;6.93;2.60;;;;;;;17.32;86.11;100599.84;4211792;28;20234;-64
2022/08/12 04:26:14;;;;;;;6.60;2.70;;;;;;;17.39;85.31;100600.78;4202475;28;22782;-64
2022/08/12 04:28:40;;;;;;;9.03;2.60;;;;;;;17.41;84.77;100609.50;4196969;28;20396;-65
2022/08/12 04:31:08;;;;;;;15.83;2.93;;;;;;;17.47;84.30;100603.38;4196149;28;20257;-63
2022/08/12 04:33:35;;;;;;;7.67;2.47;;;;;;;17.50;84.15;100608.38;4187831;28;22903;-62
2022/08/12 04:36:02;;;;;;;10.47;2.70;;;;;;;17.47;85.04;100603.38;4207381;28;20242;-62
2022/08/12 04:38:35;;;;;;;5.57;2.60;;;;;;;17.55;84.48;100600.56;4185857;28;21196;-63
2022/08/12 04:41:03;;;;;;;8.20;2.80;;;;;;;17.67;83.74;100596.38;4177375;28;20687;-67
2022/08/12 04:43:29;;;;;;;10.40;2.67;;;;;;;17.76;83.23;100601.69;4193381;28;20230;-63
2022/08/12 04:46:16;;;;;;;6.77;2.37;;;;;;;17.80;82.56;100600.28;4173877;28;20246;-64
2022/08/12 04:48:49;;;;;;;10.70;2.57;;;;;;;17.92;81.85;100594.25;4179566;28;20247;-63
2022/08/12 04:51:16;;;;;;;7.40;3.20;;;;;;;18.10;80.73;100595.69;4173708;28;20235;-67
2022/08/12 04:53:44;;;;;;;11.63;2.70;;;;;;;18.22;80.07;100601.41;4174644;28;20234;-65
2022/08/12 04:56:10;;;;;;;7.40;2.70;;;;;;;18.27;80.19;100598.97;4170260;28;20226;-62
2022/08/12 04:58:37;;;;;;;8.23;2.73;;;;;;;18.40;79.07;100604.47;4184359;28;20239;-63
2022/08/12 05:01:05;;;;;;;8.70;2.83;;;;;;;18.46;78.12;100601.03;4170458;28;21538;-65
2022/08/12 05:03:40;;;;;;;6.50;2.60;;;;;;;18.47;78.60;100600.03;4178634;28;21205;-64
2022/08/12 05:06:13;;;;;;;6.87;2.70;;;;;;;18.52;77.61;100597.56;4177049;28;20527;-64
2022/08/12 05:08:56;;;;;;;9.67;2.90;;;;;;;18.66;77.51;100594.97;4177705;28;20242;-65
2022/08/12 05:11:23;;;;;;;9.47;2.40;;;;;;;18.63;77.85;100592.69;4183316;28;20238;-67
2022/08/12 05:13:56;;;;;;;6.10;2.23;;;;;;;18.72;77.52;100596.91;4166809;28;20306;-62
2022/08/12 05:16:23;;;;;;;4.80;2.57;;;;;;;18.87;77.21;100597.69;4166008;28;20234;-66
2022/08/12 05:18:59;;;;;;;5.47;2.43;;;;;;;19.17;75.73;100608.28;4166065;28;20233;-65
2022/08/12 05:21:26;;;;;;;9.80;3.00;;;;;;;19.43;74.58;100612.16;4168917;28;20242;-63
2022/08/12 05:23:53;;;;;;;11.10;3.37;;;;;;;19.62;74.74;100608.78;4177028;28;20240;-65
2022/08/12 05:26:21;;;;;;;8.90;2.80;;;;;;;19.77;73.85;100609.47;4173043;28;23099;-63
2022/08/12 05:28:48;;;;;;;8.40;2.83;;;;;;;19.83;73.31;100610.56;4173361;28;20238;-62
2022/08/12 05:31:16;;;;;;;11.67;2.60;;;;;;;19.90;71.95;100608.72;4173207;28;21493;-62
2022/08/12 05:34:04;;;;;;;9.20;2.80;;;;;;;19.94;71.91;100620.75;4179494;28;23715;-64
2022/08/12 05:36:48;;;;;;;10.63;2.70;;;;;;;20.08;71.12;100613.53;4177001;28;21096;-69
2022/08/12 05:39:15;;;;;;;6.37;2.63;;;;;;;20.15;71.22;100613.56;4175887;28;20238;-72
2022/08/12 05:41:41;;;;;;;13.40;2.83;;;;;;;20.33;71.56;100611.13;4171625;28;20235;-69
2022/08/12 05:44:12;;;;;;;5.20;2.90;;;;;;;20.59;70.38;100613.06;4168880;28;20348;-69
2022/08/12 05:46:39;;;;;;;11.33;2.87;;;;;;;20.73;69.44;100615.78;4176295;28;20238;-70
2022/08/12 05:49:07;;;;;;;9.10;2.87;;;;;;;20.76;68.33;100612.66;4177908;28;20511;-62
2022/08/12 05:51:36;;;;;;;10.07;3.17;;;;;;;20.47;69.11;100611.97;4163667;28;20242;-62
2022/08/12 05:54:06;;;;;;;9.53;3.00;;;;;;;20.43;70.30;100614.25;4161963;28;20234;-62
2022/08/12 05:56:34;;;;;;;11.00;2.90;;;;;;;20.42;69.41;100611.75;4171926;28;20237;-60
2022/08/12 05:59:03;;;;;;;7.87;3.10;;;;;;;20.51;69.28;100615.94;4161923;28;20230;-62
2022/08/12 06:01:30;;;;;;;19.13;3.10;;;;;;;20.73;68.46;100613.91;4168793;28;21661;-63
2022/08/12 06:04:17;;;;;;;7.43;2.60;;;;;;;20.97;68.34;100615.13;4182846;28;20246;-62
2022/08/12 06:06:50;;;;;;;10.93;2.80;;;;;;;21.31;66.46;100618.66;4175130;28;20240;-64
2022/08/12 06:09:16;;;;;;;9.83;2.90;;;;;;;22.19;63.38;100628.97;4166124;28;20250;-63
2022/08/12 06:11:45;;;;;;;6.57;2.77;;;;;;;22.77;61.12;100626.13;4170757;28;20354;-63
2022/08/12 06:14:35;;;;;;;11.67;2.87;;;;;;;22.80;60.87;100622.13;4174124;28;20243;-62
2022/08/12 06:17:02;;;;;;;4.63;2.33;;;;;;;24.28;55.82;100620.38;4171826;28;20252;-61
2022/08/12 06:19:30;;;;;;;10.40;2.50;;;;;;;25.45;50.58;100637.94;4183649;28;20238;-62
2022/08/12 06:22:17;;;;;;;11.33;2.70;;;;;;;25.21;51.70;100632.50;4173640;28;21595;-62
2022/08/12 06:24:43;;;;;;;12.80;3.30;;;;;;;24.33;53.51;100631.38;4165437;28;20309;-65
2022/08/12 06:27:10;;;;;;;4.50;2.60;;;;;;;23.69;56.61;100624.63;4170661;28;21126;-68
2022/08/12 06:29:37;;;;;;;8.60;2.73;;;;;;;23.56;57.35;100621.03;4169387;28;20483;-66
2022/08/12 06:32:23;;;;;;;13.80;2.57;;;;;;;23.56;56.95;100629.19;4168783;28;20249;-68
2022/08/12 06:34:55;;;;;;;7.97;2.70;;;;;;;23.30;58.53;100624.03;4160477;28;20235;-64
2022/08/12 06:37:44;;;;;;;9.13;2.67;;;;;;;23.38;59.96;100623.72;4180470;28;20239;-68
2022/08/12 06:42:46;;;;;;;6.83;2.93;;;;;;;23.84;57.82;100621.59;4167740;28;20464;-66
2022/08/12 06:43:06;;;;;;;13.10;2.80;;;;;;;24.37;54.21;100634.44;4170246;28;21159;-65
2022/08/12 06:45:43;;;;;;;8.43;2.40;;;;;;;25.72;50.51;100645.63;4169511;28;21866;-64
2022/08/12 06:48:11;;;;;;;10.30;2.50;;;;;;;27.61;43.67;100657.19;4174419;28;20238;-65
2022/08/12 06:50:38;;;;;;;10.98;2.35;;;;;;;29.43;38.26;100663.97;4173140;28;24765;-68
2022/08/12 06:53:08;;;;;;;5.78;2.60;;;;;;;31.15;34.80;100676.00;4186207;28;22191;-66
2022/08/12 06:55:35;;;;;;;9.43;2.72;;;;;;;32.46;32.09;100678.59;4171717;28;25504;-67
2022/08/12 06:58:03;;;;;;;7.28;2.20;;;;;;;33.30;30.57;100681.28;4172165;28;20234;-66
2022/08/12 07:00:35;;;;;;;5.40;2.28;;;;;;;33.91;30.15;100681.72;4173806;28;20424;-65
2022/08/12 07:03:04;;;;;;;9.00;2.40;;;;;;;34.12;28.90;100688.66;4179559;28;20409;-64
2022/08/12 07:05:49;;;;;;;11.32;2.22;;;;;;;34.11;28.64;100692.50;4160773;28;21104;-65
2022/08/12 07:08:16;;;;;;;8.60;2.83;;;;;;;35.26;27.87;100697.69;4158654;28;20291;-66
2022/08/12 07:10:52;;;;;;;7.35;2.20;;;;;;;35.20;27.49;100687.03;4161445;28;20258;-68
2022/08/12 07:13:19;;;;;;;4.05;2.17;;;;;;;35.56;26.46;100695.44;4155834;28;20289;-65
2022/08/12 07:15:46;;;;;;;6.25;2.20;;;;;;;35.87;26.01;100697.63;4187614;28;20619;-65
2022/08/12 07:18:16;;;;;;;4.40;2.30;;;;;;;35.90;25.74;100694.25;4163023;28;20322;-65
2022/08/12 07:20:44;;;;;;;4.75;2.00;;;;;;;36.01;25.58;100701.22;4169271;28;20317;-65
2022/08/12 07:23:19;;;;;;;5.40;2.15;;;;;;;36.53;24.73;100696.19;4166548;28;20301;-66
2022/08/12 07:25:46;;;;;;;9.45;2.00;;;;;;;37.48;23.82;100697.97;4173466;28;20286;-68
2022/08/12 07:28:22;;;;;;;6.78;2.28;;;;;;;37.36;23.97;100693.03;4173371;28;20234;-67
2022/08/12 07:30:51;;;;;;;5.55;2.20;;;;;;;37.98;23.49;100694.09;4168442;28;20673;-67
2022/08/12 07:33:21;;;;;;;5.28;2.03;;;;;;;37.56;23.13;100696.44;4170616;28;20412;-57
2022/08/12 07:35:48;;;;;;;5.53;2.00;;;;;;;36.23;25.41;100680.28;4170329;28;20235;-59
2022/08/12 07:38:43;;;;;;;5.07;1.95;;;;;;;35.77;25.58;100684.81;4163940;28;20299;-53
2022/08/12 07:41:26;;;;;;;4.85;2.40;;;;;;;36.22;24.99;100689.72;4176207;28;20399;-66
2022/08/12 07:43:55;;;;;;;4.38;1.90;;;;;;;35.66;25.09;100681.47;4180105;28;20748;-65
2022/08/12 07:46:37;;;;;;;6.80;1.90;;;;;;;36.39;25.19;100691.84;4175968;28;20416;-66
2022/08/12 07:49:07;;;;;;;6.00;2.30;;;;;;;35.85;25.69;100681.34;4171262;28;22246;-64
2022/08/12 07:51:34;;;;;;;4.65;2.30;;;;;;;35.14;26.11;100685.47;4181192;28;20296;-64
2022/08/12 07:54:02;;;;;;;4.55;1.83;;;;;;;34.41;27.18;100671.09;4174071;28;21008;-67
2022/08/12 07:56:32;;;;;;;6.72;2.20;;;;;;;33.30;28.99;100669.41;4186366;28;20309;-70
2022/08/12 07:59:01;;;;;;;9.73;2.70;;;;;;;32.56;30.92;100673.03;4178035;28;22111;-65
2022/08/12 08:01:29;;;;;;;8.02;2.17;;;;;;;31.62;31.48;100658.34;4174544;28;22967;-64
2022/08/12 08:06:46;;;;;;;3.70;2.40;;;;;;;29.45;37.55;100642.59;4185324;28;20700;-65
2022/08/12 08:09:14;;;;;;;5.37;2.20;;;;;;;28.85;37.30;100634.75;4171876;28;21113;-65
2022/08/12 08:14:28;;;;;;;3.30;2.08;;;;;;;28.09;40.60;100625.50;4172842;28;20234;-63
2022/08/12 08:16:59;;;;;;;6.18;2.45;;;;;;;28.18;40.58;100610.28;4184872;28;20301;-66
2022/08/12 08:19:28;;;;;;;8.00;2.30;;;;;;;28.34;39.85;100618.66;4184419;28;20746;-67
2022/08/12 08:21:56;;;;;;;8.55;2.33;;;;;;;28.51;39.98;100624.06;4161374;28;20310;-68
2022/08/12 08:24:25;;;;;;;7.35;2.40;;;;;;;28.20;39.91;100630.00;4168915;28;20262;-66
2022/08/12 08:26:55;;;;;;;4.65;2.30;;;;;;;27.71;40.99;100626.41;4180507;28;20317;-65
2022/08/12 08:29:23;;;;;;;7.15;2.40;;;;;;;27.52;41.31;100628.63;4171408;28;20269;-64
2022/08/12 08:31:53;;;;;;;5.80;2.38;;;;;;;27.15;42.07;100634.63;4166155;28;20297;-64
2022/08/12 08:34:21;;;;;;;8.23;2.47;;;;;;;27.07;42.04;100618.66;4175729;28;22227;-66
2022/08/12 08:37:07;;;;;;;5.82;2.00;;;;;;;27.16;41.73;100628.09;4172198;28;20246;-67
2022/08/12 08:39:41;;;;;;;8.10;2.43;;;;;;;26.78;42.79;100624.22;4173123;28;20281;-64
2022/08/12 08:44:54;;;;;;;2.80;1.90;;;;;;;26.36;44.35;100621.00;4170037;28;20247;-67
2022/08/12 08:47:24;;;;;;;7.27;1.97;;;;;;;26.08;45.13;100620.78;4166202;28;21148;-67
2022/08/12 08:49:51;;;;;;;4.13;2.20;;;;;;;26.22;44.63;100621.31;4176538;28;20242;-65
2022/08/12 08:52:23;;;;;;;4.47;2.23;;;;;;;26.03;45.58;100620.66;4167919;28;20371;-66
2022/08/12 08:55:12;;;;;;;4.67;2.03;;;;;;;26.19;46.06;100626.41;4151361;28;20243;-66
2022/08/12 08:57:39;;;;;;;4.60;2.08;;;;;;;26.27;45.89;100634.19;4178465;28;20265;-64
2022/08/12 09:00:17;;;;;;;7.00;2.60;;;;;;;26.07;46.89;100619.09;4161159;28;20994;-64
2022/08/12 09:02:47;;;;;;;14.17;2.60;;;;;;;26.04;46.58;100614.16;4157852;28;23044;-66
2022/08/12 09:05:26;;;;;;;5.20;2.60;;;;;;;26.21;47.13;100616.09;4168940;28;20233;-66
2022/08/12 09:07:55;;;;;;;4.40;2.50;;;;;;;26.37;46.20;100623.47;4162473;28;20313;-67
2022/08/12 09:10:39;;;;;;;3.93;2.10;;;;;;;26.49;45.78;100604.31;4184310;28;22378;-65
2022/08/12 09:16:17;;;;;;;7.87;2.43;;;;;;;26.24;46.92;100608.22;4180336;28;22976;-67
2022/08/12 09:19:04;;;;;;;7.83;2.63;;;;;;;26.64;46.92;100607.31;4169168;28;20233;-64
2022/08/12 09:21:31;;;;;;;5.27;2.20;;;;;;;26.51;45.41;100608.44;4164958;28;20242;-65
2022/08/12 09:24:18;;;;;;;7.13;2.57;;;;;;;26.52;45.61;100610.09;4197218;28;20253;-63
2022/08/12 09:26:47;;;;;;;7.28;2.40;;;;;;;26.28;46.29;100623.03;4167960;28;20235;-67
2022/08/12 09:29:19;;;;;;;4.90;2.20;;;;;;;26.05;47.72;100615.78;4167503;28;20261;-63
2022/08/12 09:32:05;;;;;;;5.07;2.80;;;;;;;25.89;48.11;100620.13;4162578;28;23408;-65
2022/08/12 09:34:36;;;;;;;6.43;2.50;;;;;;;25.54;49.91;100614.72;4167047;28;23409;-63
2022/08/12 09:37:08;;;;;;;4.47;2.60;;;;;;;25.35;50.92;100616.75;4165147;28;20255;-63
2022/08/12 09:39:47;;;;;;;5.83;2.50;;;;;;;25.26;50.95;100613.59;4169112;28;20526;-65
2022/08/12 09:45:44;;;;;;;11.63;2.53;;;;;;;24.75;53.63;100608.81;4171763;28;20298;-66
2022/08/12 09:48:32;;;;;;;5.13;2.63;;;;;;;24.69;54.64;100607.00;4184996;28;20238;-67
2022/08/12 09:51:03;;;;;;;7.83;2.83;;;;;;;24.58;55.05;100605.91;4170790;28;20241;-63
2022/08/12 09:53:29;;;;;;;3.87;2.70;;;;;;;24.57;55.22;100602.38;4175158;28;22188;-64
2022/08/12 09:56:05;;;;;;;6.00;3.10;;;;;;;24.39;55.87;100597.78;4173327;28;20237;-64
2022/08/12 09:58:52;;;;;;;10.77;3.30;;;;;;;24.35;57.17;100595.75;4170925;28;20372;-65
2022/08/12 10:01:27;;;;;;;6.40;3.00;;;;;;;24.41;57.35;100595.66;4178033;28;20235;-64
2022/08/12 10:04:14;;;;;;;8.57;3.13;;;;;;;24.35;57.68;100587.59;4169838;28;22247;-64
2022/08/12 10:06:46;;;;;;;4.00;3.07;;;;;;;24.37;58.64;100588.19;4172739;28;25659;-62
2022/08/12 10:09:22;;;;;;;4.53;2.90;;;;;;;24.35;58.86;100593.03;4173388;28;20611;-65
2022/08/12 10:14:58;;;;;;;4.33;3.00;;;;;;;24.15;60.55;100591.44;4170792;28;20422;-64
2022/08/12 10:17:26;;;;;;;5.33;3.27;;;;;;;24.20;60.51;100586.13;4172436;28;20240;-63
2022/08/12 10:19:52;;;;;;;3.97;2.80;;;;;;;24.34;60.41;100577.78;4169947;28;21066;-65
2022/08/12 10:22:19;;;;;;;7.20;3.23;;;;;;;24.58;60.24;100581.41;4170572;28;21578;-72
2022/08/12 10:31:04;;;;;;;6.77;3.10;;;;;;;25.10;58.84;100584.31;4174101;28;20615;-64
2022/08/12 10:33:32;;;;;;;6.53;3.07;;;;;;;25.08;58.92;100578.28;4168943;28;20399;-66
2022/08/12 10:36:19;;;;;;;9.97;3.30;;;;;;;25.18;58.91;100575.81;4166965;28;20294;-64
2022/08/12 10:39:02;;;;;;;12.37;3.13;;;;;;;25.31;59.11;100582.06;4176383;28;20709;-66
2022/08/12 10:44:35;;;;;;;7.77;3.70;;;;;;;25.81;57.84;100581.47;4179820;28;22652;-62
2022/08/12 10:47:03;;;;;;;7.83;3.27;;;;;;;25.50;57.68;100572.69;4150037;28;20313;-66
2022/08/12 10:49:51;;;;;;;6.63;3.50;;;;;;;25.53;57.83;100574.09;4189838;28;22569;-64
2022/08/12 10:52:37;;;;;;;9.47;3.80;;;;;;;25.64;57.24;100571.34;4155818;28;20412;-64
2022/08/12 10:55:06;;;;;;;11.50;3.70;;;;;;;25.68;57.64;100569.78;4180389;28;20244;-64
2022/08/12 10:57:39;;;;;;;8.97;3.70;;;;;;;25.72;57.32;100566.56;4160988;28;20237;-66
2022/08/12 11:00:25;;;;;;;5.60;3.80;;;;;;;25.56;57.65;100570.88;4166416;28;20233;-67
2022/08/12 11:03:12;;;;;;;12.47;3.67;;;;;;;25.54;58.12;100571.09;4155106;28;20411;-66
2022/08/12 11:05:59;;;;;;;6.00;3.37;;;;;;;25.78;57.57;100571.03;4185235;28;22807;-67
2022/08/12 11:08:47;;;;;;;8.27;3.90;;;;;;;26.20;56.67;100573.50;4179067;28;20548;-64
2022/08/12 11:11:17;;;;;;;8.30;3.87;;;;;;;26.07;56.94;100567.28;4166840;28;21144;-64
2022/08/12 11:14:05;;;;;;;9.13;3.57;;;;;;;25.95;57.17;100561.06;4166821;28;20297;-64
2022/08/12 11:16:55;;;;;;;8.97;4.27;;;;;;;25.64;57.93;100581.41;4168961;28;20242;-64
2022/08/12 11:19:44;;;;;;;8.47;3.87;;;;;;;25.37;58.90;100567.50;4177381;28;20346;-65
2022/08/12 11:22:11;;;;;;;8.03;4.40;;;;;;;25.50;59.06;100564.50;4165668;28;20250;-63
2022/08/12 11:24:39;;;;;;;8.93;3.80;;;;;;;25.52;58.17;100556.94;4158828;28;20249;-66
2022/08/12 11:27:16;;;;;;;10.43;4.30;;;;;;;25.46;59.87;100555.16;4168507;28;20493;-64
2022/08/12 11:29:43;;;;;;;8.30;3.90;;;;;;;25.60;59.00;100558.44;4182395;28;20242;-66
2022/08/12 11:32:30;;;;;;;7.10;3.73;;;;;;;25.71;58.98;100560.31;4181600;28;20239;-65
2022/08/12 11:35:05;;;;;;;9.23;3.80;;;;;;;25.77;58.30;100564.75;4173962;28;20240;-65
2022/08/12 11:37:32;;;;;;;9.47;4.00;;;;;;;25.90;58.12;100561.78;4190764;28;22006;-64
2022/08/12 11:40:19;;;;;;;6.57;4.00;;;;;;;25.89;58.56;100556.56;4171873;28;20226;-65
2022/08/12 11:42:46;;;;;;;8.50;4.20;;;;;;;25.79;58.62;100564.53;4179509;28;20595;-64
2022/08/12 11:45:13;;;;;;;6.53;3.80;;;;;;;25.63;58.90;100550.59;4173081;28;20245;-65
2022/08/12 11:47:42;;;;;;;9.93;4.00;;;;;;;25.80;58.42;100550.66;4178423;28;20393;-66
2022/08/12 11:50:09;;;;;;;9.73;4.20;;;;;;;25.89;58.67;100551.13;4169703;28;20250;-63
2022/08/12 11:52:44;;;;;;;14.97;5.40;;;;;;;25.72;59.45;100552.94;4178236;28;22808;-64
2022/08/12 11:55:23;;;;;;;7.73;4.70;;;;;;;25.63;59.22;100549.75;4188581;28;20231;-63
2022/08/12 11:57:52;;;;;;;7.63;4.13;;;;;;;25.55;60.26;100545.53;4157106;28;20231;-64
2022/08/12 12:00:39;;;;;;;18.03;5.87;;;;;;;25.69;59.00;100541.44;4182679;28;20230;-64
2022/08/12 12:03:25;;;;;;;12.90;5.90;;;;;;;25.58;59.32;100547.75;4171271;28;20246;-64
2022/08/12 12:06:12;;;;;;;10.50;5.20;;;;;;;25.66;58.82;100546.53;4182067;28;20231;-65
2022/08/12 12:08:43;;;;;;;8.93;4.80;;;;;;;25.93;58.11;100551.47;4156887;28;20227;-65
2022/08/12 12:11:17;;;;;;;8.63;4.60;;;;;;;25.86;57.97;100546.13;4170333;28;20291;-63
2022/08/12 12:13:44;;;;;;;10.10;4.50;;;;;;;25.87;58.05;100536.91;4173310;28;20238;-63
2022/08/12 12:16:31;;;;;;;9.47;4.60;;;;;;;25.74;58.46;100534.44;4176386;28;20309;-62
2022/08/12 12:19:07;;;;;;;7.90;4.80;;;;;;;25.82;57.85;100534.06;4168550;28;20235;-65
2022/08/12 12:21:36;;;;;;;10.03;4.63;;;;;;;25.68;58.42;100534.34;4171270;28;20592;-65
2022/08/12 12:24:16;;;;;;;7.97;4.63;;;;;;;25.74;58.45;100531.72;4172337;28;20247;-66
2022/08/12 12:26:50;;;;;;;9.43;4.43;;;;;;;25.88;58.10;100535.84;4165916;28;20376;-65
2022/08/12 12:29:29;;;;;;;8.77;4.90;;;;;;;26.09;57.71;100528.88;4173734;28;20234;-65
2022/08/12 12:32:16;;;;;;;8.67;4.43;;;;;;;26.34;56.39;100533.94;4178973;28;21934;-64
2022/08/12 12:34:44;;;;;;;9.70;4.50;;;;;;;26.24;56.88;100525.56;4176866;28;21112;-66
2022/08/12 12:37:30;;;;;;;8.87;4.60;;;;;;;26.08;57.65;100519.00;4167765;28;20242;-65
2022/08/12 12:40:18;;;;;;;8.83;4.90;;;;;;;26.01;57.72;100516.47;4166645;28;20282;-63
2022/08/12 12:42:45;;;;;;;7.00;4.47;;;;;;;26.03;57.76;100514.28;4167045;28;20374;-69
2022/08/12 12:45:26;;;;;;;8.83;5.10;;;;;;;26.25;57.14;100516.31;4175701;28;20260;-65
2022/08/12 12:48:00;;;;;;;10.43;4.83;;;;;;;26.14;57.03;100512.59;4183448;28;20243;-62
2022/08/12 12:50:29;;;;;;;10.40;6.27;;;;;;;26.43;56.52;100520.69;4194802;28;23423;-68
2022/08/12 12:53:02;;;;;;;8.10;4.50;;;;;;;26.72;55.24;100516.00;4166747;28;20654;-64
2022/08/12 12:55:29;;;;;;;8.53;4.97;;;;;;;26.99;53.23;100515.28;4200443;28;21091;-65
2022/08/12 12:58:03;;;;;;;10.77;4.30;;;;;;;27.15;52.94;100525.34;4181030;28;20381;-65
2022/08/12 13:00:31;;;;;;;12.00;4.50;;;;;;;27.32;53.85;100512.50;4170171;28;21205;-65
2022/08/12 13:02:58;;;;;;;9.57;4.73;;;;;;;27.25;53.17;100508.28;4180323;28;21104;-65
2022/08/12 13:05:28;;;;;;;9.30;5.03;;;;;;;27.20;54.13;100500.84;4177146;28;20703;-64
2022/08/12 13:08:24;;;;;;;7.93;4.57;;;;;;;27.64;52.57;100502.75;4209277;28;22007;-63
2022/08/12 13:11:02;;;;;;;9.93;5.10;;;;;;;27.71;50.55;100511.56;4173286;28;20332;-64
2022/08/12 13:13:35;;;;;;;7.97;4.75;;;;;;;28.06;50.34;100497.44;4180780;28;20252;-67
2022/08/12 13:16:25;;;;;;;8.65;4.70;;;;;;;28.50;48.41;100510.97;4179169;28;20357;-64
2022/08/12 13:18:52;;;;;;;6.05;4.30;;;;;;;28.64;48.84;100518.75;4168621;28;20237;-65
2022/08/12 13:21:22;;;;;;;6.75;4.72;;;;;;;28.09;49.93;100507.03;4178842;28;21730;-64
2022/08/12 13:24:02;;;;;;;8.18;4.22;;;;;;;27.29;57.59;100493.84;4155656;28;20234;-64
2022/08/12 13:26:38;;;;;;;11.13;5.10;;;;;;;26.29;62.94;100491.03;4167748;28;20237;-65
2022/08/12 13:29:05;;;;;;;10.45;5.65;;;;;;;25.46;69.19;100487.03;4172728;28;20238;-64
2022/08/12 13:31:36;;;;;;;17.33;7.27;;;;;;;23.83;80.82;100493.00;4166793;28;21083;-68
2022/08/12 13:34:23;;;;;;;21.93;8.77;;;;;;;22.69;90.71;100501.63;4179506;28;21630;-66
2022/08/12 13:37:03;;;;;;;26.87;12.27;;;;;;;22.18;100.00;100478.25;4169125;28;21202;-65
2022/08/12 13:39:36;;;;;;;22.93;11.40;;;;;;;21.75;100.00;100475.41;4177410;28;21043;-64
2022/08/12 13:42:07;;;;;;;17.83;11.80;;;;;;;21.36;100.00;100483.50;4163558;28;20230;-67
2022/08/12 13:44:40;;;;;;;17.23;11.27;;;;;;;20.96;100.00;100485.50;4167817;28;21743;-65
2022/08/12 13:47:07;;;;;;;14.30;10.83;;;;;;;20.78;100.00;100483.44;4156858;28;20297;-63